sensor_id;sensor_type;location;lat;lon;timestamp;pressure;altitude;pressure_sealevel;temperature;humidity
47753;BME280;2038;51.728;6.674;2022-11-25T00:01:39;100388.75;;;9.30;100.00
47753;BME280;2038;51.728;6.674;2022-11-25T00:04:06;100384.16;;;9.24;100.00
47753;BME280;2038;51.728;6.674;2022-11-25T00:06:34;100377.19;;;9.35;100.00
47753;BME280;2038;51.728;6.674;2022-11-25T00:09:13;100375.16;;;9.29;100.00
47753;BME280;2038;51.728;6.674;2022-11-25T00:11:41;100378.66;;;9.31;100.00
47753;BME280;2038;51.728;6.674;2022-11-25T00:14:14;100371.25;;;9.34;100.00
47753;BME280;2038;51.728;6.674;2022-11-25T00:16:44;100368.50;;;9.31;100.00
47753;BME280;2038;51.728;6.674;2022-11-25T00:19:16;100360.78;;;9.30;100.00
47753;BME280;2038;51.728;6.674;2022-11-25T00:21:42;100359.72;;;9.26;100.00
47753;BME280;2038;51.728;6.674;2022-11-25T00:24:08;100360.97;;;9.20;100.00
47753;BME280;2038;51.728;6.674;2022-11-25T00:26:38;100360.09;;;9.32;100.00
47753;BME280;2038;51.728;6.674;2022-11-25T00:29:06;100360.28;;;9.35;100.00
47753;BME280;2038;51.728;6.674;2022-11-25T00:31:37;100356.19;;;9.37;100.00
47753;BME280;2038;51.728;6.674;2022-11-25T00:34:05;100352.16;;;9.28;100.00
47753;BME280;2038;51.728;6.674;2022-11-25T00:36:33;100355.47;;;9.27;100.00
47753;BME280;2038;51.728;6.674;2022-11-25T00:39:08;100346.00;;;9.37;100.00
47753;BME280;2038;51.728;6.674;2022-11-25T00:41:37;100348.75;;;9.40;100.00
47753;BME280;2038;51.728;6.674;2022-11-25T00:44:22;100343.06;;;9.45;100.00
47753;BME280;2038;51.728;6.674;2022-11-25T00:49:32;100350.50;;;9.42;100.00
47753;BME280;2038;51.728;6.674;2022-11-25T00:51:58;100342.94;;;9.43;100.00
47753;BME280;2038;51.728;6.674;2022-11-25T00:54:25;100354.91;;;9.44;100.00
47753;BME280;2038;51.728;6.674;2022-11-25T00:56:52;100349.22;;;9.48;100.00
47753;BME280;2038;51.728;6.674;2022-11-25T00:59:19;100343.16;;;9.46;100.00
47753;BME280;2038;51.728;6.674;2022-11-25T01:01:45;100347.44;;;9.60;100.00
47753;BME280;2038;51.728;6.674;2022-11-25T01:04:12;100343.25;;;9.61;100.00
47753;BME280;2038;51.728;6.674;2022-11-25T01:06:38;100339.88;;;9.75;100.00
47753;BME280;2038;51.728;6.674;2022-11-25T01:09:05;100345.94;;;9.77;100.00
47753;BME280;2038;51.728;6.674;2022-11-25T01:11:35;100347.50;;;9.75;100.00
47753;BME280;2038;51.728;6.674;2022-11-25T01:14:01;100354.88;;;9.70;100.00
47753;BME280;2038;51.728;6.674;2022-11-25T01:16:28;100347.84;;;9.66;100.00
47753;BME280;2038;51.728;6.674;2022-11-25T01:18:56;100346.06;;;9.65;100.00
47753;BME280;2038;51.728;6.674;2022-11-25T01:21:28;100346.13;;;9.80;100.00
47753;BME280;2038;51.728;6.674;2022-11-25T01:23:58;100342.22;;;9.85;100.00
47753;BME280;2038;51.728;6.674;2022-11-25T01:26:27;100339.94;;;9.90;100.00
47753;BME280;2038;51.728;6.674;2022-11-25T01:28:58;100345.22;;;9.93;100.00
47753;BME280;2038;51.728;6.674;2022-11-25T01:31:32;100351.69;;;9.87;100.00
47753;BME280;2038;51.728;6.674;2022-11-25T01:34:11;100354.19;;;10.01;100.00
47753;BME280;2038;51.728;6.674;2022-11-25T01:36:48;100344.72;;;9.98;100.00
47753;BME280;2038;51.728;6.674;2022-11-25T01:39:22;100339.91;;;10.03;100.00
47753;BME280;2038;51.728;6.674;2022-11-25T01:41:53;100341.38;;;9.99;100.00
47753;BME280;2038;51.728;6.674;2022-11-25T01:44:27;100333.66;;;9.98;100.00
47753;BME280;2038;51.728;6.674;2022-11-25T01:47:18;100339.41;;;10.08;100.00
47753;BME280;2038;51.728;6.674;2022-11-25T01:50:00;100333.31;;;10.19;100.00
47753;BME280;2038;51.728;6.674;2022-11-25T01:52:40;100338.88;;;10.27;100.00
47753;BME280;2038;51.728;6.674;2022-11-25T01:55:32;100342.84;;;10.37;100.00
47753;BME280;2038;51.728;6.674;2022-11-25T01:58:08;100347.66;;;10.32;100.00
47753;BME280;2038;51.728;6.674;2022-11-25T02:00:39;100347.59;;;10.30;100.00
47753;BME280;2038;51.728;6.674;2022-11-25T02:03:06;100342.03;;;10.23;100.00
47753;BME280;2038;51.728;6.674;2022-11-25T02:05:50;100343.88;;;10.25;100.00
47753;BME280;2038;51.728;6.674;2022-11-25T02:08:22;100337.28;;;10.29;100.00
47753;BME280;2038;51.728;6.674;2022-11-25T02:10:53;100334.03;;;10.31;100.00
47753;BME280;2038;51.728;6.674;2022-11-25T02:13:21;100325.88;;;10.37;100.00
47753;BME280;2038;51.728;6.674;2022-11-25T02:15:48;100320.97;;;10.40;100.00
47753;BME280;2038;51.728;6.674;2022-11-25T02:18:15;100331.59;;;10.48;100.00
47753;BME280;2038;51.728;6.674;2022-11-25T02:20:41;100341.00;;;10.49;100.00
47753;BME280;2038;51.728;6.674;2022-11-25T02:25:59;100346.25;;;10.37;100.00
47753;BME280;2038;51.728;6.674;2022-11-25T02:28:30;100359.09;;;10.39;100.00
47753;BME280;2038;51.728;6.674;2022-11-25T02:30:58;100353.19;;;10.40;100.00
47753;BME280;2038;51.728;6.674;2022-11-25T02:33:25;100355.34;;;10.47;100.00
47753;BME280;2038;51.728;6.674;2022-11-25T02:35:55;100365.16;;;10.55;100.00
47753;BME280;2038;51.728;6.674;2022-11-25T02:41:15;100367.13;;;10.59;100.00
47753;BME280;2038;51.728;6.674;2022-11-25T02:43:48;100364.06;;;10.65;100.00
47753;BME280;2038;51.728;6.674;2022-11-25T02:46:20;100357.13;;;10.62;100.00
47753;BME280;2038;51.728;6.674;2022-11-25T02:48:53;100353.75;;;10.49;100.00
47753;BME280;2038;51.728;6.674;2022-11-25T02:51:26;100361.44;;;10.78;100.00
47753;BME280;2038;51.728;6.674;2022-11-25T02:53:55;100361.28;;;10.47;100.00
47753;BME280;2038;51.728;6.674;2022-11-25T02:56:25;100354.34;;;10.45;100.00
47753;BME280;2038;51.728;6.674;2022-11-25T02:58:57;100353.81;;;10.36;100.00
47753;BME280;2038;51.728;6.674;2022-11-25T03:01:24;100351.47;;;10.39;100.00
47753;BME280;2038;51.728;6.674;2022-11-25T03:03:56;100353.19;;;10.40;100.00
47753;BME280;2038;51.728;6.674;2022-11-25T03:06:23;100355.13;;;10.44;100.00
47753;BME280;2038;51.728;6.674;2022-11-25T03:08:52;100358.69;;;10.46;100.00
47753;BME280;2038;51.728;6.674;2022-11-25T03:11:22;100360.97;;;10.56;100.00
47753;BME280;2038;51.728;6.674;2022-11-25T03:14:17;100362.72;;;10.57;100.00
47753;BME280;2038;51.728;6.674;2022-11-25T03:16:50;100354.75;;;10.51;100.00
47753;BME280;2038;51.728;6.674;2022-11-25T03:19:28;100355.53;;;10.50;100.00
47753;BME280;2038;51.728;6.674;2022-11-25T03:21:57;100356.47;;;10.52;100.00
47753;BME280;2038;51.728;6.674;2022-11-25T03:24:25;100360.88;;;10.54;100.00
47753;BME280;2038;51.728;6.674;2022-11-25T03:26:54;100369.75;;;10.61;100.00
47753;BME280;2038;51.728;6.674;2022-11-25T03:29:21;100362.91;;;10.60;100.00
47753;BME280;2038;51.728;6.674;2022-11-25T03:31:50;100359.22;;;10.55;100.00
47753;BME280;2038;51.728;6.674;2022-11-25T03:34:18;100365.88;;;10.53;100.00
47753;BME280;2038;51.728;6.674;2022-11-25T03:36:47;100373.06;;;10.45;100.00
47753;BME280;2038;51.728;6.674;2022-11-25T03:39:18;100376.56;;;10.47;100.00
47753;BME280;2038;51.728;6.674;2022-11-25T03:42:00;100388.09;;;10.41;100.00
47753;BME280;2038;51.728;6.674;2022-11-25T03:44:29;100390.19;;;10.48;100.00
47753;BME280;2038;51.728;6.674;2022-11-25T03:46:57;100403.88;;;10.63;100.00
47753;BME280;2038;51.728;6.674;2022-11-25T03:49:23;100398.16;;;10.67;100.00
47753;BME280;2038;51.728;6.674;2022-11-25T03:51:57;100402.78;;;10.59;100.00
47753;BME280;2038;51.728;6.674;2022-11-25T03:54:23;100404.88;;;10.52;100.00
47753;BME280;2038;51.728;6.674;2022-11-25T03:56:55;100403.53;;;10.44;100.00
47753;BME280;2038;51.728;6.674;2022-11-25T03:59:21;100409.16;;;10.38;100.00
47753;BME280;2038;51.728;6.674;2022-11-25T04:01:50;100411.25;;;10.30;100.00
47753;BME280;2038;51.728;6.674;2022-11-25T04:04:21;100420.97;;;10.23;100.00
47753;BME280;2038;51.728;6.674;2022-11-25T04:06:55;100420.16;;;10.24;100.00
47753;BME280;2038;51.728;6.674;2022-11-25T04:09:24;100415.59;;;10.18;100.00
47753;BME280;2038;51.728;6.674;2022-11-25T04:11:53;100413.72;;;10.16;100.00
47753;BME280;2038;51.728;6.674;2022-11-25T04:14:38;100428.69;;;10.24;100.00
47753;BME280;2038;51.728;6.674;2022-11-25T04:17:04;100429.22;;;10.19;100.00
47753;BME280;2038;51.728;6.674;2022-11-25T04:19:29;100426.75;;;10.20;100.00
47753;BME280;2038;51.728;6.674;2022-11-25T04:21:55;100437.63;;;10.18;100.00
47753;BME280;2038;51.728;6.674;2022-11-25T04:24:24;100427.91;;;10.12;100.00
47753;BME280;2038;51.728;6.674;2022-11-25T04:26:50;100435.88;;;10.17;100.00
47753;BME280;2038;51.728;6.674;2022-11-25T04:29:16;100436.75;;;10.17;100.00
47753;BME280;2038;51.728;6.674;2022-11-25T04:31:42;100442.81;;;10.19;100.00
47753;BME280;2038;51.728;6.674;2022-11-25T04:34:07;100442.03;;;10.20;100.00
47753;BME280;2038;51.728;6.674;2022-11-25T04:36:33;100436.44;;;10.13;100.00
47753;BME280;2038;51.728;6.674;2022-11-25T04:38:59;100427.63;;;10.08;100.00
47753;BME280;2038;51.728;6.674;2022-11-25T04:41:25;100407.97;;;10.46;100.00
47753;BME280;2038;51.728;6.674;2022-11-25T04:43:51;100399.94;;;10.40;100.00
47753;BME280;2038;51.728;6.674;2022-11-25T04:46:20;100406.94;;;10.29;100.00
47753;BME280;2038;51.728;6.674;2022-11-25T04:48:49;100401.34;;;10.35;100.00
47753;BME280;2038;51.728;6.674;2022-11-25T04:51:15;100398.44;;;10.44;100.00
47753;BME280;2038;51.728;6.674;2022-11-25T04:53:41;100393.81;;;10.51;100.00
47753;BME280;2038;51.728;6.674;2022-11-25T04:56:15;100393.19;;;10.41;100.00
47753;BME280;2038;51.728;6.674;2022-11-25T04:58:43;100403.50;;;10.29;100.00
47753;BME280;2038;51.728;6.674;2022-11-25T05:01:28;100413.28;;;10.36;100.00
47753;BME280;2038;51.728;6.674;2022-11-25T05:03:53;100405.13;;;10.42;100.00
47753;BME280;2038;51.728;6.674;2022-11-25T05:06:19;100401.41;;;10.37;100.00
47753;BME280;2038;51.728;6.674;2022-11-25T05:08:49;100409.00;;;10.35;100.00
47753;BME280;2038;51.728;6.674;2022-11-25T05:11:17;100399.59;;;10.49;100.00
47753;BME280;2038;51.728;6.674;2022-11-25T05:13:44;100404.59;;;10.47;100.00
47753;BME280;2038;51.728;6.674;2022-11-25T05:16:12;100408.03;;;10.48;100.00
47753;BME280;2038;51.728;6.674;2022-11-25T05:18:38;100402.41;;;10.39;100.00
47753;BME280;2038;51.728;6.674;2022-11-25T05:21:05;100412.94;;;10.45;100.00
47753;BME280;2038;51.728;6.674;2022-11-25T05:23:32;100413.13;;;10.48;100.00
47753;BME280;2038;51.728;6.674;2022-11-25T05:26:04;100422.38;;;10.46;100.00
47753;BME280;2038;51.728;6.674;2022-11-25T05:28:31;100425.78;;;10.46;100.00
47753;BME280;2038;51.728;6.674;2022-11-25T05:30:57;100434.94;;;10.43;100.00
47753;BME280;2038;51.728;6.674;2022-11-25T05:33:29;100449.41;;;10.44;100.00
47753;BME280;2038;51.728;6.674;2022-11-25T05:36:02;100460.88;;;10.37;100.00
47753;BME280;2038;51.728;6.674;2022-11-25T05:38:29;100461.97;;;10.41;100.00
47753;BME280;2038;51.728;6.674;2022-11-25T05:41:04;100476.00;;;10.34;100.00
47753;BME280;2038;51.728;6.674;2022-11-25T05:43:32;100472.94;;;10.40;100.00
47753;BME280;2038;51.728;6.674;2022-11-25T05:45:58;100470.78;;;10.46;100.00
47753;BME280;2038;51.728;6.674;2022-11-25T05:48:25;100472.31;;;10.44;100.00
47753;BME280;2038;51.728;6.674;2022-11-25T05:50:51;100478.03;;;10.40;100.00
47753;BME280;2038;51.728;6.674;2022-11-25T05:53:18;100485.06;;;10.44;100.00
47753;BME280;2038;51.728;6.674;2022-11-25T05:55:55;100479.78;;;10.41;100.00
47753;BME280;2038;51.728;6.674;2022-11-25T05:58:27;100479.00;;;10.42;100.00
47753;BME280;2038;51.728;6.674;2022-11-25T06:00:55;100491.22;;;10.47;100.00
47753;BME280;2038;51.728;6.674;2022-11-25T06:03:26;100496.31;;;10.47;100.00
47753;BME280;2038;51.728;6.674;2022-11-25T06:05:56;100505.91;;;10.51;100.00
47753;BME280;2038;51.728;6.674;2022-11-25T06:08:23;100506.03;;;10.40;100.00
47753;BME280;2038;51.728;6.674;2022-11-25T06:10:51;100495.47;;;10.47;100.00
47753;BME280;2038;51.728;6.674;2022-11-25T06:13:18;100500.56;;;10.47;100.00
47753;BME280;2038;51.728;6.674;2022-11-25T06:15:45;100512.13;;;10.42;100.00
47753;BME280;2038;51.728;6.674;2022-11-25T06:18:14;100513.16;;;10.58;100.00
47753;BME280;2038;51.728;6.674;2022-11-25T06:20:42;100510.63;;;10.58;100.00
47753;BME280;2038;51.728;6.674;2022-11-25T06:23:12;100519.81;;;10.56;100.00
47753;BME280;2038;51.728;6.674;2022-11-25T06:25:42;100515.25;;;10.51;100.00
47753;BME280;2038;51.728;6.674;2022-11-25T06:28:10;100518.66;;;10.51;100.00
47753;BME280;2038;51.728;6.674;2022-11-25T06:30:36;100510.81;;;10.48;100.00
47753;BME280;2038;51.728;6.674;2022-11-25T06:33:08;100520.66;;;10.42;100.00
47753;BME280;2038;51.728;6.674;2022-11-25T06:35:38;100526.53;;;10.41;100.00
47753;BME280;2038;51.728;6.674;2022-11-25T06:38:07;100536.53;;;10.38;100.00
47753;BME280;2038;51.728;6.674;2022-11-25T06:40:39;100533.09;;;10.38;100.00
47753;BME280;2038;51.728;6.674;2022-11-25T06:43:11;100530.97;;;10.30;100.00
47753;BME280;2038;51.728;6.674;2022-11-25T06:45:40;100536.66;;;10.26;100.00
47753;BME280;2038;51.728;6.674;2022-11-25T06:48:09;100532.88;;;10.48;100.00
47753;BME280;2038;51.728;6.674;2022-11-25T06:50:38;100533.75;;;10.48;100.00
47753;BME280;2038;51.728;6.674;2022-11-25T06:53:07;100545.13;;;10.53;100.00
47753;BME280;2038;51.728;6.674;2022-11-25T06:55:37;100541.31;;;10.47;100.00
47753;BME280;2038;51.728;6.674;2022-11-25T06:58:06;100550.94;;;10.38;100.00
47753;BME280;2038;51.728;6.674;2022-11-25T07:00:35;100557.22;;;10.29;100.00
47753;BME280;2038;51.728;6.674;2022-11-25T07:03:04;100556.41;;;10.44;100.00
47753;BME280;2038;51.728;6.674;2022-11-25T07:05:33;100563.56;;;10.49;100.00
47753;BME280;2038;51.728;6.674;2022-11-25T07:08:02;100557.22;;;10.43;100.00
47753;BME280;2038;51.728;6.674;2022-11-25T07:10:32;100559.16;;;10.47;100.00
47753;BME280;2038;51.728;6.674;2022-11-25T07:13:02;100566.88;;;10.48;100.00
47753;BME280;2038;51.728;6.674;2022-11-25T07:15:32;100572.16;;;10.51;100.00
47753;BME280;2038;51.728;6.674;2022-11-25T07:18:02;100578.44;;;10.43;100.00
47753;BME280;2038;51.728;6.674;2022-11-25T07:20:33;100584.94;;;10.38;100.00
47753;BME280;2038;51.728;6.674;2022-11-25T07:22:59;100591.78;;;10.39;100.00
47753;BME280;2038;51.728;6.674;2022-11-25T07:25:39;100590.69;;;10.49;100.00
47753;BME280;2038;51.728;6.674;2022-11-25T07:28:13;100592.47;;;10.37;100.00
47753;BME280;2038;51.728;6.674;2022-11-25T07:30:39;100603.25;;;10.46;100.00
47753;BME280;2038;51.728;6.674;2022-11-25T07:33:05;100597.63;;;10.51;100.00
47753;BME280;2038;51.728;6.674;2022-11-25T07:35:33;100595.09;;;10.51;100.00
47753;BME280;2038;51.728;6.674;2022-11-25T07:37:59;100600.78;;;10.47;100.00
47753;BME280;2038;51.728;6.674;2022-11-25T07:40:25;100605.09;;;10.48;100.00
47753;BME280;2038;51.728;6.674;2022-11-25T07:42:51;100605.28;;;10.51;100.00
47753;BME280;2038;51.728;6.674;2022-11-25T07:45:18;100606.97;;;10.51;100.00
47753;BME280;2038;51.728;6.674;2022-11-25T07:47:45;100610.59;;;10.41;100.00
47753;BME280;2038;51.728;6.674;2022-11-25T07:50:11;100613.25;;;10.43;100.00
47753;BME280;2038;51.728;6.674;2022-11-25T07:52:38;100621.75;;;10.56;100.00
47753;BME280;2038;51.728;6.674;2022-11-25T07:55:06;100634.13;;;10.50;100.00
47753;BME280;2038;51.728;6.674;2022-11-25T07:57:32;100633.22;;;10.63;100.00
47753;BME280;2038;51.728;6.674;2022-11-25T07:59:58;100634.91;;;10.49;100.00
47753;BME280;2038;51.728;6.674;2022-11-25T08:02:25;100632.06;;;10.45;100.00
47753;BME280;2038;51.728;6.674;2022-11-25T08:04:51;100630.38;;;10.45;100.00
47753;BME280;2038;51.728;6.674;2022-11-25T08:07:17;100639.22;;;10.37;100.00
47753;BME280;2038;51.728;6.674;2022-11-25T08:09:43;100645.97;;;10.37;100.00
47753;BME280;2038;51.728;6.674;2022-11-25T08:12:10;100647.56;;;10.35;100.00
47753;BME280;2038;51.728;6.674;2022-11-25T08:14:36;100642.72;;;10.39;100.00
47753;BME280;2038;51.728;6.674;2022-11-25T08:17:02;100647.03;;;10.53;100.00
47753;BME280;2038;51.728;6.674;2022-11-25T08:19:30;100655.56;;;10.67;100.00
47753;BME280;2038;51.728;6.674;2022-11-25T08:21:57;100657.44;;;10.56;100.00
47753;BME280;2038;51.728;6.674;2022-11-25T08:24:23;100657.34;;;10.55;100.00
47753;BME280;2038;51.728;6.674;2022-11-25T08:26:49;100662.63;;;10.58;100.00
47753;BME280;2038;51.728;6.674;2022-11-25T08:29:17;100665.59;;;10.51;100.00
47753;BME280;2038;51.728;6.674;2022-11-25T08:31:44;100664.88;;;10.53;100.00
47753;BME280;2038;51.728;6.674;2022-11-25T08:34:17;100669.56;;;10.60;100.00
47753;BME280;2038;51.728;6.674;2022-11-25T08:36:45;100673.13;;;10.62;100.00
47753;BME280;2038;51.728;6.674;2022-11-25T08:39:11;100673.72;;;10.58;100.00
47753;BME280;2038;51.728;6.674;2022-11-25T08:41:38;100681.44;;;10.60;100.00
47753;BME280;2038;51.728;6.674;2022-11-25T08:44:06;100682.44;;;10.62;100.00
47753;BME280;2038;51.728;6.674;2022-11-25T08:46:36;100685.56;;;10.71;100.00
47753;BME280;2038;51.728;6.674;2022-11-25T08:49:06;100679.97;;;10.63;100.00
47753;BME280;2038;51.728;6.674;2022-11-25T08:51:36;100682.91;;;10.69;100.00
47753;BME280;2038;51.728;6.674;2022-11-25T08:54:04;100685.47;;;10.69;100.00
47753;BME280;2038;51.728;6.674;2022-11-25T08:56:32;100681.63;;;10.76;100.00
47753;BME280;2038;51.728;6.674;2022-11-25T08:58:58;100689.97;;;10.87;100.00
47753;BME280;2038;51.728;6.674;2022-11-25T09:01:25;100687.72;;;10.78;100.00
47753;BME280;2038;51.728;6.674;2022-11-25T09:03:54;100693.00;;;10.81;100.00
47753;BME280;2038;51.728;6.674;2022-11-25T09:06:23;100693.28;;;10.86;100.00
47753;BME280;2038;51.728;6.674;2022-11-25T09:08:56;100702.59;;;10.85;100.00
47753;BME280;2038;51.728;6.674;2022-11-25T09:11:24;100700.34;;;10.76;100.00
47753;BME280;2038;51.728;6.674;2022-11-25T09:13:50;100698.88;;;10.80;100.00
47753;BME280;2038;51.728;6.674;2022-11-25T09:16:17;100718.97;;;10.89;100.00
47753;BME280;2038;51.728;6.674;2022-11-25T09:18:43;100721.34;;;10.86;100.00
47753;BME280;2038;51.728;6.674;2022-11-25T09:21:13;100705.38;;;10.75;100.00
47753;BME280;2038;51.728;6.674;2022-11-25T09:23:40;100710.38;;;10.73;100.00
47753;BME280;2038;51.728;6.674;2022-11-25T09:26:09;100720.16;;;10.80;100.00
47753;BME280;2038;51.728;6.674;2022-11-25T09:28:44;100723.19;;;10.88;100.00
47753;BME280;2038;51.728;6.674;2022-11-25T09:31:11;100727.50;;;10.89;100.00
47753;BME280;2038;51.728;6.674;2022-11-25T09:33:37;100729.88;;;10.86;100.00
47753;BME280;2038;51.728;6.674;2022-11-25T09:36:04;100746.13;;;10.88;100.00
47753;BME280;2038;51.728;6.674;2022-11-25T09:38:31;100748.03;;;10.91;100.00
47753;BME280;2038;51.728;6.674;2022-11-25T09:41:01;100752.41;;;10.80;100.00
47753;BME280;2038;51.728;6.674;2022-11-25T09:43:59;100755.97;;;10.95;100.00
47753;BME280;2038;51.728;6.674;2022-11-25T09:47:31;100756.16;;;10.98;100.00
47753;BME280;2038;51.728;6.674;2022-11-25T09:50:31;100758.41;;;11.07;100.00
47753;BME280;2038;51.728;6.674;2022-11-25T09:53:49;100766.31;;;11.11;100.00
47753;BME280;2038;51.728;6.674;2022-11-25T09:56:41;100766.53;;;11.14;100.00
47753;BME280;2038;51.728;6.674;2022-11-25T09:59:35;100774.84;;;11.12;100.00
47753;BME280;2038;51.728;6.674;2022-11-25T10:05:20;100780.78;;;11.11;100.00
47753;BME280;2038;51.728;6.674;2022-11-25T10:07:56;100779.19;;;11.00;100.00
47753;BME280;2038;51.728;6.674;2022-11-25T10:10:45;100791.63;;;11.08;100.00
47753;BME280;2038;51.728;6.674;2022-11-25T10:13:26;100786.94;;;11.01;100.00
47753;BME280;2038;51.728;6.674;2022-11-25T10:16:00;100784.78;;;10.94;100.00
47753;BME280;2038;51.728;6.674;2022-11-25T10:18:42;100795.06;;;11.09;100.00
47753;BME280;2038;51.728;6.674;2022-11-25T10:21:15;100800.97;;;11.21;100.00
47753;BME280;2038;51.728;6.674;2022-11-25T10:23:41;100803.50;;;11.21;100.00
47753;BME280;2038;51.728;6.674;2022-11-25T10:26:22;100798.88;;;11.28;100.00
47753;BME280;2038;51.728;6.674;2022-11-25T10:31:41;100806.06;;;11.34;100.00
47753;BME280;2038;51.728;6.674;2022-11-25T10:34:43;100807.13;;;11.38;100.00
47753;BME280;2038;51.728;6.674;2022-11-25T10:37:32;100809.44;;;11.48;100.00
47753;BME280;2038;51.728;6.674;2022-11-25T10:40:13;100806.31;;;11.52;100.00
47753;BME280;2038;51.728;6.674;2022-11-25T10:42:41;100813.38;;;11.56;100.00
47753;BME280;2038;51.728;6.674;2022-11-25T10:45:09;100812.69;;;11.58;100.00
47753;BME280;2038;51.728;6.674;2022-11-25T10:48:06;100824.16;;;11.65;100.00
47753;BME280;2038;51.728;6.674;2022-11-25T10:56:49;100827.59;;;11.79;100.00
47753;BME280;2038;51.728;6.674;2022-11-25T10:59:38;100827.06;;;11.84;100.00
47753;BME280;2038;51.728;6.674;2022-11-25T11:07:41;100834.00;;;12.00;100.00
47753;BME280;2038;51.728;6.674;2022-11-25T11:10:26;100838.50;;;12.04;100.00
47753;BME280;2038;51.728;6.674;2022-11-25T11:13:01;100841.28;;;12.07;100.00
47753;BME280;2038;51.728;6.674;2022-11-25T11:18:27;100847.13;;;12.19;100.00
47753;BME280;2038;51.728;6.674;2022-11-25T11:21:06;100850.28;;;12.15;100.00
47753;BME280;2038;51.728;6.674;2022-11-25T11:23:53;100841.31;;;12.22;100.00
47753;BME280;2038;51.728;6.674;2022-11-25T11:29:17;100852.31;;;12.20;100.00
47753;BME280;2038;51.728;6.674;2022-11-25T11:31:56;100855.25;;;12.27;100.00
47753;BME280;2038;51.728;6.674;2022-11-25T11:43:23;100865.81;;;12.33;100.00
47753;BME280;2038;51.728;6.674;2022-11-25T11:49:04;100873.47;;;12.33;100.00
47753;BME280;2038;51.728;6.674;2022-11-25T11:52:02;100867.59;;;12.34;100.00
47753;BME280;2038;51.728;6.674;2022-11-25T11:54:44;100872.00;;;12.36;100.00
47753;BME280;2038;51.728;6.674;2022-11-25T12:00:12;100881.44;;;12.37;100.00
47753;BME280;2038;51.728;6.674;2022-11-25T12:03:03;100887.78;;;12.44;100.00
47753;BME280;2038;51.728;6.674;2022-11-25T12:05:39;100884.91;;;12.52;100.00
47753;BME280;2038;51.728;6.674;2022-11-25T12:11:11;100889.84;;;12.49;100.00
47753;BME280;2038;51.728;6.674;2022-11-25T12:16:55;100894.50;;;12.56;100.00
47753;BME280;2038;51.728;6.674;2022-11-25T12:22:28;100906.78;;;12.62;100.00
47753;BME280;2038;51.728;6.674;2022-11-25T12:25:51;100906.91;;;12.63;100.00
47753;BME280;2038;51.728;6.674;2022-11-25T12:28:23;100911.72;;;12.59;100.00
47753;BME280;2038;51.728;6.674;2022-11-25T12:36:33;100919.13;;;12.54;100.00
47753;BME280;2038;51.728;6.674;2022-11-25T12:42:00;100912.22;;;12.39;100.00
47753;BME280;2038;51.728;6.674;2022-11-25T12:45:03;100921.91;;;12.44;100.00
47753;BME280;2038;51.728;6.674;2022-11-25T12:47:45;100930.50;;;12.59;100.00
47753;BME280;2038;51.728;6.674;2022-11-25T12:50:18;100926.34;;;12.61;100.00
47753;BME280;2038;51.728;6.674;2022-11-25T12:53:15;100939.16;;;12.61;100.00
47753;BME280;2038;51.728;6.674;2022-11-25T12:55:51;100936.75;;;12.50;100.00
47753;BME280;2038;51.728;6.674;2022-11-25T13:01:20;100946.91;;;12.63;100.00
47753;BME280;2038;51.728;6.674;2022-11-25T13:04:21;100955.94;;;12.71;100.00
47753;BME280;2038;51.728;6.674;2022-11-25T13:10:14;100963.00;;;12.75;100.00
47753;BME280;2038;51.728;6.674;2022-11-25T13:12:53;100958.50;;;12.71;100.00
47753;BME280;2038;51.728;6.674;2022-11-25T13:15:40;100961.94;;;12.72;100.00
47753;BME280;2038;51.728;6.674;2022-11-25T13:18:14;100977.63;;;12.78;100.00
47753;BME280;2038;51.728;6.674;2022-11-25T13:20:49;100967.66;;;12.68;100.00
47753;BME280;2038;51.728;6.674;2022-11-25T13:25:47;100980.97;;;12.77;100.00
47753;BME280;2038;51.728;6.674;2022-11-25T13:28:34;100976.69;;;12.76;100.00
47753;BME280;2038;51.728;6.674;2022-11-25T13:36:24;100984.31;;;13.03;100.00
47753;BME280;2038;51.728;6.674;2022-11-25T13:39:13;100994.31;;;13.13;100.00
47753;BME280;2038;51.728;6.674;2022-11-25T13:44:57;101004.66;;;13.15;100.00
47753;BME280;2038;51.728;6.674;2022-11-25T13:47:31;101001.38;;;13.18;100.00
47753;BME280;2038;51.728;6.674;2022-11-25T13:52:42;101021.84;;;13.18;100.00
47753;BME280;2038;51.728;6.674;2022-11-25T13:57:47;101020.00;;;13.15;100.00
47753;BME280;2038;51.728;6.674;2022-11-25T14:09:08;101038.81;;;13.16;100.00
47753;BME280;2038;51.728;6.674;2022-11-25T14:17:47;101045.63;;;12.74;100.00
47753;BME280;2038;51.728;6.674;2022-11-25T14:26:49;101048.00;;;12.71;100.00
47753;BME280;2038;51.728;6.674;2022-11-25T14:29:24;101046.22;;;12.70;100.00
47753;BME280;2038;51.728;6.674;2022-11-25T14:32:04;101047.88;;;12.70;100.00
47753;BME280;2038;51.728;6.674;2022-11-25T14:34:48;101045.22;;;12.68;100.00
47753;BME280;2038;51.728;6.674;2022-11-25T14:40:42;101061.00;;;12.61;100.00
47753;BME280;2038;51.728;6.674;2022-11-25T14:43:14;101053.50;;;12.64;100.00
47753;BME280;2038;51.728;6.674;2022-11-25T14:46:09;101066.09;;;12.61;100.00
47753;BME280;2038;51.728;6.674;2022-11-25T14:48:53;101069.97;;;12.54;100.00
47753;BME280;2038;51.728;6.674;2022-11-25T14:51:21;101076.03;;;12.56;100.00
47753;BME280;2038;51.728;6.674;2022-11-25T14:53:50;101079.31;;;12.54;100.00
47753;BME280;2038;51.728;6.674;2022-11-25T14:56:29;101075.75;;;12.52;100.00
47753;BME280;2038;51.728;6.674;2022-11-25T14:58:59;101086.50;;;12.59;100.00
47753;BME280;2038;51.728;6.674;2022-11-25T15:01:28;101083.63;;;12.55;100.00
47753;BME280;2038;51.728;6.674;2022-11-25T15:04:24;101077.63;;;12.54;100.00
47753;BME280;2038;51.728;6.674;2022-11-25T15:06:56;101086.28;;;12.56;100.00
47753;BME280;2038;51.728;6.674;2022-11-25T15:09:40;101092.56;;;12.48;100.00